This is the latest recevied weather packets stored in our database for station/object KB1WCR. If no packets are shown the sender has not sent any weather packets the latest 1 day(s).
| Time | Temp. | Humidity | Pressure | Rain* | Wind** | Luminosity | Snow |
|---|---|---|---|---|---|---|---|
| 1778081783 | 17.22° C | 83% | 1008.3 hPa | 0 mm | - | 190 W/m² | - |
| 1778081177 | 16.67° C | 84% | 1008.3 hPa | 0 mm | - | 387 W/m² | - |
| 1778080875 | 16.67° C | 84% | 1008.6 hPa | 0 mm | - | 231 W/m² | - |
| 1778078150 | 15.56° C | 84% | 1008.2 hPa | 0 mm | - | 201 W/m² | - |
| 1778076940 | 16.11° C | 84% | 1008.2 hPa | 0 mm | - | 251 W/m² | - |
| 1778075122 | 16.11° C | 84% | 1008.8 hPa | 0 mm | - | 223 W/m² | - |
| 1778074818 | 16.67° C | 84% | 1008.5 hPa | 0 mm | - | 201 W/m² | - |
| 1778072691 | 16.11° C | 83% | 1008.5 hPa | 0 mm | - | 184 W/m² | - |
| 1778072389 | 15.56° C | 85% | 1008.8 hPa | 0 mm | - | 215 W/m² | - |
| 1778072087 | 15.56° C | 84% | 1008.5 hPa | 0 mm | - | 149 W/m² | - |
| 1778071482 | 16.11° C | 84% | 1008.6 hPa | 0 mm | - | 148 W/m² | - |
| 1778071180 | 16.11° C | 82% | 1008.7 hPa | 0 mm | - | 402 W/m² | - |
| 1778069970 | 14.44° C | 88% | 1008.7 hPa | 0 mm | - | 186 W/m² | - |
| 1778069061 | 13.89° C | 89% | 1008.8 hPa | 0 mm | - | 163 W/m² | - |
| 1778068758 | 13.89° C | 89% | 1009.1 hPa | 0 mm | - | 91 W/m² | - |
| 1778068456 | 13.89° C | 89% | 1008.9 hPa | 0 mm | - | 89 W/m² | - |
| 1778064219 | 11.67° C | 92% | 1009.5 hPa | 0 mm | - | 68 W/m² | - |
| 1778063614 | 11.67° C | 92% | 1009.4 hPa | 0 mm | - | 38 W/m² | - |
| 1778063311 | 11.67° C | 92% | 1009.1 hPa | 0 mm | - | 33 W/m² | - |
| 1778063009 | 11.11° C | 93% | 1009 hPa | 0 mm | - | 43 W/m² | - |
| 1778062706 | 11.11° C | 93% | 1008.9 hPa | 0 mm | - | 39 W/m² | - |
| 1778062100 | 11.11° C | 93% | 1009.3 hPa | 0 mm | - | 33 W/m² | - |
| 1778061193 | 10.56° C | 94% | 1008.8 hPa | 0 mm | - | 23 W/m² | - |
| 1778060286 | 10.56° C | 93% | 1008.9 hPa | 0 mm | - | 8 W/m² | - |
| 1778058773 | 11.11° C | 92% | 1009 hPa | 0 mm | - | 0 W/m² | - |
* Rain latest hour (hover to see other rain measurements)
** Current wind speed in m/s (hover to see current wind gust speed)